sensor_id;sensor_type;location;lat;lon;timestamp;P1;durP1;ratioP1;P2;durP2;ratioP2
13568;SDS011;6856;51.460;7.158;2023-04-08T00:00:36;7.57;;;6.50;;
13568;SDS011;6856;51.460;7.158;2023-04-08T00:03:10;6.80;;;6.10;;
13568;SDS011;6856;51.460;7.158;2023-04-08T00:05:44;6.53;;;5.83;;
13568;SDS011;6856;51.460;7.158;2023-04-08T00:08:17;6.43;;;5.83;;
13568;SDS011;6856;51.460;7.158;2023-04-08T00:10:52;7.77;;;6.97;;
13568;SDS011;6856;51.460;7.158;2023-04-08T00:13:26;7.37;;;6.67;;
13568;SDS011;6856;51.460;7.158;2023-04-08T00:16:01;7.63;;;6.93;;
13568;SDS011;6856;51.460;7.158;2023-04-08T00:18:36;7.27;;;6.33;;
13568;SDS011;6856;51.460;7.158;2023-04-08T00:21:10;6.93;;;6.23;;
13568;SDS011;6856;51.460;7.158;2023-04-08T00:23:46;7.20;;;6.13;;
13568;SDS011;6856;51.460;7.158;2023-04-08T00:26:20;7.70;;;6.73;;
13568;SDS011;6856;51.460;7.158;2023-04-08T00:28:54;5.93;;;5.33;;
13568;SDS011;6856;51.460;7.158;2023-04-08T00:31:31;6.80;;;6.10;;
13568;SDS011;6856;51.460;7.158;2023-04-08T00:34:04;5.73;;;5.07;;
13568;SDS011;6856;51.460;7.158;2023-04-08T00:36:38;8.03;;;6.73;;
13568;SDS011;6856;51.460;7.158;2023-04-08T00:39:12;7.67;;;6.87;;
13568;SDS011;6856;51.460;7.158;2023-04-08T00:41:48;6.77;;;6.07;;
13568;SDS011;6856;51.460;7.158;2023-04-08T00:44:22;7.43;;;6.73;;
13568;SDS011;6856;51.460;7.158;2023-04-08T00:46:57;6.93;;;6.23;;
13568;SDS011;6856;51.460;7.158;2023-04-08T00:49:31;7.20;;;6.03;;
13568;SDS011;6856;51.460;7.158;2023-04-08T00:52:05;6.13;;;5.53;;
13568;SDS011;6856;51.460;7.158;2023-04-08T00:54:40;6.70;;;6.00;;
13568;SDS011;6856;51.460;7.158;2023-04-08T00:57:16;7.17;;;6.43;;
13568;SDS011;6856;51.460;7.158;2023-04-08T00:59:50;7.23;;;6.47;;
13568;SDS011;6856;51.460;7.158;2023-04-08T01:02:27;7.73;;;6.93;;
13568;SDS011;6856;51.460;7.158;2023-04-08T01:05:13;7.30;;;6.60;;
13568;SDS011;6856;51.460;7.158;2023-04-08T01:07:57;7.30;;;6.43;;
13568;SDS011;6856;51.460;7.158;2023-04-08T01:10:37;7.70;;;6.90;;
13568;SDS011;6856;51.460;7.158;2023-04-08T01:13:15;8.43;;;7.53;;
13568;SDS011;6856;51.460;7.158;2023-04-08T01:15:52;8.13;;;7.33;;
13568;SDS011;6856;51.460;7.158;2023-04-08T01:18:29;7.00;;;6.30;;
13568;SDS011;6856;51.460;7.158;2023-04-08T01:21:07;7.20;;;6.50;;
13568;SDS011;6856;51.460;7.158;2023-04-08T01:23:45;7.40;;;6.70;;
13568;SDS011;6856;51.460;7.158;2023-04-08T01:26:32;8.27;;;7.17;;
13568;SDS011;6856;51.460;7.158;2023-04-08T01:29:07;7.70;;;6.93;;
13568;SDS011;6856;51.460;7.158;2023-04-08T01:31:43;7.47;;;6.70;;
13568;SDS011;6856;51.460;7.158;2023-04-08T01:34:19;6.97;;;6.27;;
13568;SDS011;6856;51.460;7.158;2023-04-08T01:36:55;7.87;;;7.07;;
13568;SDS011;6856;51.460;7.158;2023-04-08T01:39:30;7.73;;;6.93;;
13568;SDS011;6856;51.460;7.158;2023-04-08T01:42:08;8.33;;;7.03;;
13568;SDS011;6856;51.460;7.158;2023-04-08T01:44:43;8.77;;;7.87;;
13568;SDS011;6856;51.460;7.158;2023-04-08T01:47:18;8.33;;;7.40;;
13568;SDS011;6856;51.460;7.158;2023-04-08T01:49:52;10.13;;;9.13;;
13568;SDS011;6856;51.460;7.158;2023-04-08T01:52:28;10.40;;;9.30;;
13568;SDS011;6856;51.460;7.158;2023-04-08T01:55:04;9.30;;;8.17;;
13568;SDS011;6856;51.460;7.158;2023-04-08T01:57:40;12.20;;;9.80;;
13568;SDS011;6856;51.460;7.158;2023-04-08T02:00:20;9.50;;;8.50;;
13568;SDS011;6856;51.460;7.158;2023-04-08T02:03:02;8.87;;;7.97;;
13568;SDS011;6856;51.460;7.158;2023-04-08T02:05:39;9.70;;;8.70;;
13568;SDS011;6856;51.460;7.158;2023-04-08T02:08:12;9.03;;;7.97;;
13568;SDS011;6856;51.460;7.158;2023-04-08T02:10:46;9.33;;;8.40;;
13568;SDS011;6856;51.460;7.158;2023-04-08T02:13:21;9.50;;;8.50;;
13568;SDS011;6856;51.460;7.158;2023-04-08T02:15:56;8.93;;;7.77;;
13568;SDS011;6856;51.460;7.158;2023-04-08T02:18:39;10.27;;;8.07;;
13568;SDS011;6856;51.460;7.158;2023-04-08T02:21:21;8.50;;;7.47;;
13568;SDS011;6856;51.460;7.158;2023-04-08T02:23:59;9.87;;;8.87;;
13568;SDS011;6856;51.460;7.158;2023-04-08T02:26:39;9.80;;;8.17;;
13568;SDS011;6856;51.460;7.158;2023-04-08T02:29:18;9.77;;;8.37;;
13568;SDS011;6856;51.460;7.158;2023-04-08T02:31:52;8.67;;;7.73;;
13568;SDS011;6856;51.460;7.158;2023-04-08T02:34:28;8.83;;;7.63;;
13568;SDS011;6856;51.460;7.158;2023-04-08T02:37:03;8.50;;;7.03;;
13568;SDS011;6856;51.460;7.158;2023-04-08T02:39:40;10.47;;;8.43;;
13568;SDS011;6856;51.460;7.158;2023-04-08T02:42:14;8.83;;;7.47;;
13568;SDS011;6856;51.460;7.158;2023-04-08T02:44:50;9.23;;;7.90;;
13568;SDS011;6856;51.460;7.158;2023-04-08T02:47:23;9.23;;;8.00;;
13568;SDS011;6856;51.460;7.158;2023-04-08T02:49:57;9.73;;;8.10;;
13568;SDS011;6856;51.460;7.158;2023-04-08T02:52:31;10.17;;;8.67;;
13568;SDS011;6856;51.460;7.158;2023-04-08T02:55:05;10.07;;;8.63;;
13568;SDS011;6856;51.460;7.158;2023-04-08T02:57:41;8.73;;;7.83;;
13568;SDS011;6856;51.460;7.158;2023-04-08T03:00:17;8.73;;;7.77;;
13568;SDS011;6856;51.460;7.158;2023-04-08T03:02:51;10.23;;;8.80;;
13568;SDS011;6856;51.460;7.158;2023-04-08T03:05:25;9.90;;;8.60;;
13568;SDS011;6856;51.460;7.158;2023-04-08T03:07:59;10.23;;;8.67;;
13568;SDS011;6856;51.460;7.158;2023-04-08T03:10:33;9.57;;;7.87;;
13568;SDS011;6856;51.460;7.158;2023-04-08T03:13:06;9.43;;;8.17;;
13568;SDS011;6856;51.460;7.158;2023-04-08T03:15:41;9.60;;;8.47;;
13568;SDS011;6856;51.460;7.158;2023-04-08T03:18:15;10.73;;;8.37;;
13568;SDS011;6856;51.460;7.158;2023-04-08T03:20:49;11.13;;;9.50;;
13568;SDS011;6856;51.460;7.158;2023-04-08T03:23:23;10.17;;;8.73;;
13568;SDS011;6856;51.460;7.158;2023-04-08T03:25:57;9.93;;;8.47;;
13568;SDS011;6856;51.460;7.158;2023-04-08T03:28:31;10.07;;;8.40;;
13568;SDS011;6856;51.460;7.158;2023-04-08T03:31:06;10.07;;;8.37;;
13568;SDS011;6856;51.460;7.158;2023-04-08T03:33:40;11.23;;;8.90;;
13568;SDS011;6856;51.460;7.158;2023-04-08T03:36:15;11.90;;;9.47;;
13568;SDS011;6856;51.460;7.158;2023-04-08T03:38:49;11.07;;;8.70;;
13568;SDS011;6856;51.460;7.158;2023-04-08T03:41:22;11.47;;;9.33;;
13568;SDS011;6856;51.460;7.158;2023-04-08T03:43:56;11.20;;;9.43;;
13568;SDS011;6856;51.460;7.158;2023-04-08T03:46:31;11.87;;;9.67;;
13568;SDS011;6856;51.460;7.158;2023-04-08T03:49:05;10.67;;;8.87;;
13568;SDS011;6856;51.460;7.158;2023-04-08T03:51:39;11.83;;;9.70;;
13568;SDS011;6856;51.460;7.158;2023-04-08T03:54:13;12.47;;;9.83;;
13568;SDS011;6856;51.460;7.158;2023-04-08T03:56:48;13.43;;;10.77;;
13568;SDS011;6856;51.460;7.158;2023-04-08T03:59:21;23.77;;;10.83;;
13568;SDS011;6856;51.460;7.158;2023-04-08T04:01:57;14.80;;;9.77;;
13568;SDS011;6856;51.460;7.158;2023-04-08T04:04:30;14.47;;;10.47;;
13568;SDS011;6856;51.460;7.158;2023-04-08T04:07:04;16.40;;;9.97;;
13568;SDS011;6856;51.460;7.158;2023-04-08T04:09:38;13.27;;;9.90;;
13568;SDS011;6856;51.460;7.158;2023-04-08T04:12:11;12.73;;;10.00;;
13568;SDS011;6856;51.460;7.158;2023-04-08T04:14:45;11.87;;;9.83;;
13568;SDS011;6856;51.460;7.158;2023-04-08T04:17:20;12.70;;;10.00;;
13568;SDS011;6856;51.460;7.158;2023-04-08T04:19:54;13.27;;;10.67;;
13568;SDS011;6856;51.460;7.158;2023-04-08T04:22:28;12.47;;;9.90;;
13568;SDS011;6856;51.460;7.158;2023-04-08T04:25:01;14.90;;;10.20;;
13568;SDS011;6856;51.460;7.158;2023-04-08T04:27:35;11.60;;;9.87;;
13568;SDS011;6856;51.460;7.158;2023-04-08T04:30:09;12.57;;;10.33;;
13568;SDS011;6856;51.460;7.158;2023-04-08T04:32:47;15.10;;;11.00;;
13568;SDS011;6856;51.460;7.158;2023-04-08T04:35:21;14.63;;;10.10;;
13568;SDS011;6856;51.460;7.158;2023-04-08T04:37:55;13.73;;;10.83;;
13568;SDS011;6856;51.460;7.158;2023-04-08T04:40:28;18.27;;;10.63;;
13568;SDS011;6856;51.460;7.158;2023-04-08T04:43:02;17.47;;;11.03;;
13568;SDS011;6856;51.460;7.158;2023-04-08T04:45:36;11.93;;;9.47;;
13568;SDS011;6856;51.460;7.158;2023-04-08T04:48:11;16.67;;;10.07;;
13568;SDS011;6856;51.460;7.158;2023-04-08T04:50:53;12.97;;;10.17;;
13568;SDS011;6856;51.460;7.158;2023-04-08T04:53:27;12.07;;;9.63;;
13568;SDS011;6856;51.460;7.158;2023-04-08T04:56:02;13.27;;;10.83;;
13568;SDS011;6856;51.460;7.158;2023-04-08T04:58:35;11.97;;;9.87;;
13568;SDS011;6856;51.460;7.158;2023-04-08T05:01:09;12.37;;;10.03;;
13568;SDS011;6856;51.460;7.158;2023-04-08T05:03:45;11.10;;;9.63;;
13568;SDS011;6856;51.460;7.158;2023-04-08T05:06:19;12.53;;;9.83;;
13568;SDS011;6856;51.460;7.158;2023-04-08T05:08:52;12.83;;;9.30;;
13568;SDS011;6856;51.460;7.158;2023-04-08T05:11:26;15.40;;;10.23;;
13568;SDS011;6856;51.460;7.158;2023-04-08T05:14:00;10.40;;;8.67;;
13568;SDS011;6856;51.460;7.158;2023-04-08T05:16:34;13.50;;;9.43;;
13568;SDS011;6856;51.460;7.158;2023-04-08T05:19:16;10.07;;;8.90;;
13568;SDS011;6856;51.460;7.158;2023-04-08T05:21:49;11.80;;;9.73;;
13568;SDS011;6856;51.460;7.158;2023-04-08T05:24:23;11.40;;;9.97;;
13568;SDS011;6856;51.460;7.158;2023-04-08T05:26:56;11.40;;;9.00;;
13568;SDS011;6856;51.460;7.158;2023-04-08T05:29:30;25.60;;;10.97;;
13568;SDS011;6856;51.460;7.158;2023-04-08T05:32:04;16.63;;;9.10;;
13568;SDS011;6856;51.460;7.158;2023-04-08T05:34:39;10.67;;;9.00;;
13568;SDS011;6856;51.460;7.158;2023-04-08T05:37:13;11.83;;;8.87;;
13568;SDS011;6856;51.460;7.158;2023-04-08T05:39:49;11.00;;;9.17;;
13568;SDS011;6856;51.460;7.158;2023-04-08T05:42:23;13.83;;;9.70;;
13568;SDS011;6856;51.460;7.158;2023-04-08T05:44:58;23.43;;;11.70;;
13568;SDS011;6856;51.460;7.158;2023-04-08T05:47:32;22.00;;;10.93;;
13568;SDS011;6856;51.460;7.158;2023-04-08T05:50:08;23.97;;;10.40;;
13568;SDS011;6856;51.460;7.158;2023-04-08T05:52:43;16.13;;;10.43;;
13568;SDS011;6856;51.460;7.158;2023-04-08T05:55:17;10.47;;;8.97;;
13568;SDS011;6856;51.460;7.158;2023-04-08T05:57:53;11.83;;;9.63;;
13568;SDS011;6856;51.460;7.158;2023-04-08T06:00:27;15.50;;;10.40;;
13568;SDS011;6856;51.460;7.158;2023-04-08T06:03:03;16.23;;;11.57;;
13568;SDS011;6856;51.460;7.158;2023-04-08T06:05:38;13.33;;;10.53;;
13568;SDS011;6856;51.460;7.158;2023-04-08T06:08:12;14.30;;;11.20;;
13568;SDS011;6856;51.460;7.158;2023-04-08T06:10:48;15.30;;;12.53;;
13568;SDS011;6856;51.460;7.158;2023-04-08T06:13:23;15.17;;;12.13;;
13568;SDS011;6856;51.460;7.158;2023-04-08T06:15:57;15.90;;;12.67;;
13568;SDS011;6856;51.460;7.158;2023-04-08T06:18:42;15.10;;;12.13;;
13568;SDS011;6856;51.460;7.158;2023-04-08T06:21:18;17.47;;;13.00;;
13568;SDS011;6856;51.460;7.158;2023-04-08T06:23:52;21.13;;;12.90;;
13568;SDS011;6856;51.460;7.158;2023-04-08T06:26:26;18.13;;;12.47;;
13568;SDS011;6856;51.460;7.158;2023-04-08T06:29:00;17.30;;;11.50;;
13568;SDS011;6856;51.460;7.158;2023-04-08T06:31:34;17.57;;;12.00;;
13568;SDS011;6856;51.460;7.158;2023-04-08T06:34:08;17.83;;;13.50;;
13568;SDS011;6856;51.460;7.158;2023-04-08T06:36:43;18.00;;;13.90;;
13568;SDS011;6856;51.460;7.158;2023-04-08T06:39:17;15.90;;;12.33;;
13568;SDS011;6856;51.460;7.158;2023-04-08T06:41:52;13.77;;;11.97;;
13568;SDS011;6856;51.460;7.158;2023-04-08T06:44:26;12.87;;;11.13;;
13568;SDS011;6856;51.460;7.158;2023-04-08T06:47:00;15.50;;;11.93;;
13568;SDS011;6856;51.460;7.158;2023-04-08T06:49:34;12.27;;;10.47;;
13568;SDS011;6856;51.460;7.158;2023-04-08T06:52:09;12.97;;;10.73;;
13568;SDS011;6856;51.460;7.158;2023-04-08T06:54:47;12.33;;;11.00;;
13568;SDS011;6856;51.460;7.158;2023-04-08T06:57:21;12.23;;;10.47;;
13568;SDS011;6856;51.460;7.158;2023-04-08T06:59:55;11.30;;;10.00;;
13568;SDS011;6856;51.460;7.158;2023-04-08T07:02:28;15.33;;;10.40;;
13568;SDS011;6856;51.460;7.158;2023-04-08T07:05:02;13.97;;;11.13;;
13568;SDS011;6856;51.460;7.158;2023-04-08T07:07:40;17.03;;;10.60;;
13568;SDS011;6856;51.460;7.158;2023-04-08T07:10:14;13.57;;;11.67;;
13568;SDS011;6856;51.460;7.158;2023-04-08T07:12:48;12.57;;;10.97;;
13568;SDS011;6856;51.460;7.158;2023-04-08T07:15:22;13.07;;;11.73;;
13568;SDS011;6856;51.460;7.158;2023-04-08T07:17:56;14.23;;;12.60;;
13568;SDS011;6856;51.460;7.158;2023-04-08T07:20:30;12.53;;;11.10;;
13568;SDS011;6856;51.460;7.158;2023-04-08T07:23:07;14.10;;;12.37;;
13568;SDS011;6856;51.460;7.158;2023-04-08T07:25:41;16.73;;;14.03;;
13568;SDS011;6856;51.460;7.158;2023-04-08T07:28:15;15.93;;;14.23;;
13568;SDS011;6856;51.460;7.158;2023-04-08T07:30:49;13.57;;;12.10;;
13568;SDS011;6856;51.460;7.158;2023-04-08T07:33:23;12.97;;;11.50;;
13568;SDS011;6856;51.460;7.158;2023-04-08T07:35:57;11.93;;;10.73;;
13568;SDS011;6856;51.460;7.158;2023-04-08T07:38:37;15.03;;;12.97;;
13568;SDS011;6856;51.460;7.158;2023-04-08T07:41:12;13.73;;;11.87;;
13568;SDS011;6856;51.460;7.158;2023-04-08T07:43:47;13.53;;;12.10;;
13568;SDS011;6856;51.460;7.158;2023-04-08T07:46:21;16.60;;;13.70;;
13568;SDS011;6856;51.460;7.158;2023-04-08T07:48:55;19.97;;;16.87;;
13568;SDS011;6856;51.460;7.158;2023-04-08T07:51:29;20.50;;;18.20;;
13568;SDS011;6856;51.460;7.158;2023-04-08T07:54:06;24.90;;;21.10;;
13568;SDS011;6856;51.460;7.158;2023-04-08T07:56:41;22.67;;;19.80;;
13568;SDS011;6856;51.460;7.158;2023-04-08T07:59:15;23.23;;;20.73;;
13568;SDS011;6856;51.460;7.158;2023-04-08T08:01:49;26.47;;;22.23;;
13568;SDS011;6856;51.460;7.158;2023-04-08T08:04:22;22.57;;;19.70;;
13568;SDS011;6856;51.460;7.158;2023-04-08T08:06:57;24.60;;;20.93;;
13568;SDS011;6856;51.460;7.158;2023-04-08T08:09:32;23.87;;;20.73;;
13568;SDS011;6856;51.460;7.158;2023-04-08T08:12:06;26.03;;;22.67;;
13568;SDS011;6856;51.460;7.158;2023-04-08T08:14:40;23.30;;;19.73;;
13568;SDS011;6856;51.460;7.158;2023-04-08T08:17:14;24.30;;;21.67;;
13568;SDS011;6856;51.460;7.158;2023-04-08T08:19:47;22.83;;;20.03;;
13568;SDS011;6856;51.460;7.158;2023-04-08T08:22:21;22.20;;;19.33;;
13568;SDS011;6856;51.460;7.158;2023-04-08T08:24:57;18.00;;;16.10;;
13568;SDS011;6856;51.460;7.158;2023-04-08T08:27:30;19.83;;;17.73;;
13568;SDS011;6856;51.460;7.158;2023-04-08T08:30:05;19.07;;;16.90;;
13568;SDS011;6856;51.460;7.158;2023-04-08T08:32:41;18.60;;;16.60;;
13568;SDS011;6856;51.460;7.158;2023-04-08T08:35:14;19.13;;;17.03;;
13568;SDS011;6856;51.460;7.158;2023-04-08T08:37:48;20.23;;;17.07;;
13568;SDS011;6856;51.460;7.158;2023-04-08T08:40:24;17.60;;;15.70;;
13568;SDS011;6856;51.460;7.158;2023-04-08T08:42:58;14.83;;;13.33;;
13568;SDS011;6856;51.460;7.158;2023-04-08T08:45:32;13.83;;;12.40;;
13568;SDS011;6856;51.460;7.158;2023-04-08T08:48:06;11.83;;;10.73;;
13568;SDS011;6856;51.460;7.158;2023-04-08T08:50:40;13.60;;;11.70;;
13568;SDS011;6856;51.460;7.158;2023-04-08T08:53:14;12.07;;;10.87;;
13568;SDS011;6856;51.460;7.158;2023-04-08T08:55:51;11.73;;;10.53;;
13568;SDS011;6856;51.460;7.158;2023-04-08T08:58:28;11.57;;;10.37;;
13568;SDS011;6856;51.460;7.158;2023-04-08T09:01:03;11.67;;;10.47;;
13568;SDS011;6856;51.460;7.158;2023-04-08T09:04:09;11.77;;;10.50;;
13568;SDS011;6856;51.460;7.158;2023-04-08T09:06:48;12.17;;;10.93;;
13568;SDS011;6856;51.460;7.158;2023-04-08T09:09:46;11.60;;;10.40;;
13568;SDS011;6856;51.460;7.158;2023-04-08T09:12:24;12.67;;;11.37;;
13568;SDS011;6856;51.460;7.158;2023-04-08T09:15:02;11.77;;;10.67;;
13568;SDS011;6856;51.460;7.158;2023-04-08T09:17:38;13.00;;;11.73;;
13568;SDS011;6856;51.460;7.158;2023-04-08T09:20:13;14.07;;;12.03;;
13568;SDS011;6856;51.460;7.158;2023-04-08T09:22:54;13.23;;;11.83;;
13568;SDS011;6856;51.460;7.158;2023-04-08T09:25:30;13.40;;;11.50;;
13568;SDS011;6856;51.460;7.158;2023-04-08T09:28:07;10.43;;;9.03;;
13568;SDS011;6856;51.460;7.158;2023-04-08T09:30:52;10.87;;;9.60;;
13568;SDS011;6856;51.460;7.158;2023-04-08T09:33:29;11.27;;;9.80;;
13568;SDS011;6856;51.460;7.158;2023-04-08T09:36:03;10.57;;;9.50;;
13568;SDS011;6856;51.460;7.158;2023-04-08T09:38:38;10.63;;;9.47;;
13568;SDS011;6856;51.460;7.158;2023-04-08T09:41:12;10.20;;;8.90;;
13568;SDS011;6856;51.460;7.158;2023-04-08T09:43:51;9.30;;;8.30;;
13568;SDS011;6856;51.460;7.158;2023-04-08T09:46:28;8.70;;;7.33;;
13568;SDS011;6856;51.460;7.158;2023-04-08T09:49:11;9.17;;;7.23;;
13568;SDS011;6856;51.460;7.158;2023-04-08T09:51:57;7.17;;;5.73;;
13568;SDS011;6856;51.460;7.158;2023-04-08T09:54:41;7.83;;;6.30;;
13568;SDS011;6856;51.460;7.158;2023-04-08T09:57:24;7.47;;;6.43;;
13568;SDS011;6856;51.460;7.158;2023-04-08T10:00:15;7.00;;;5.60;;
13568;SDS011;6856;51.460;7.158;2023-04-08T10:02:53;8.37;;;6.03;;
13568;SDS011;6856;51.460;7.158;2023-04-08T10:05:34;7.80;;;6.50;;
13568;SDS011;6856;51.460;7.158;2023-04-08T10:08:11;7.13;;;6.33;;
13568;SDS011;6856;51.460;7.158;2023-04-08T10:10:46;6.83;;;5.77;;
13568;SDS011;6856;51.460;7.158;2023-04-08T10:13:21;8.67;;;6.63;;
13568;SDS011;6856;51.460;7.158;2023-04-08T10:18:54;7.63;;;6.13;;
13568;SDS011;6856;51.460;7.158;2023-04-08T10:21:34;6.90;;;6.17;;
13568;SDS011;6856;51.460;7.158;2023-04-08T10:24:10;7.17;;;6.10;;
13568;SDS011;6856;51.460;7.158;2023-04-08T10:26:44;7.40;;;6.10;;
13568;SDS011;6856;51.460;7.158;2023-04-08T10:29:31;7.03;;;6.07;;
13568;SDS011;6856;51.460;7.158;2023-04-08T10:32:07;6.73;;;6.03;;
13568;SDS011;6856;51.460;7.158;2023-04-08T10:34:50;7.53;;;6.50;;
13568;SDS011;6856;51.460;7.158;2023-04-08T10:37:25;7.67;;;6.17;;
13568;SDS011;6856;51.460;7.158;2023-04-08T10:40:03;9.00;;;6.57;;
13568;SDS011;6856;51.460;7.158;2023-04-08T10:42:38;7.13;;;6.43;;
13568;SDS011;6856;51.460;7.158;2023-04-08T10:45:15;7.70;;;6.57;;
13568;SDS011;6856;51.460;7.158;2023-04-08T10:47:51;7.80;;;7.00;;
13568;SDS011;6856;51.460;7.158;2023-04-08T10:50:25;8.70;;;6.70;;
13568;SDS011;6856;51.460;7.158;2023-04-08T10:53:01;8.87;;;6.67;;
13568;SDS011;6856;51.460;7.158;2023-04-08T10:55:36;8.33;;;6.50;;
13568;SDS011;6856;51.460;7.158;2023-04-08T10:58:14;7.70;;;6.90;;
13568;SDS011;6856;51.460;7.158;2023-04-08T11:00:49;7.00;;;6.20;;
13568;SDS011;6856;51.460;7.158;2023-04-08T11:03:26;7.57;;;6.83;;
13568;SDS011;6856;51.460;7.158;2023-04-08T11:06:00;7.77;;;6.40;;
13568;SDS011;6856;51.460;7.158;2023-04-08T11:08:34;7.43;;;6.53;;
13568;SDS011;6856;51.460;7.158;2023-04-08T11:11:10;7.97;;;6.70;;
13568;SDS011;6856;51.460;7.158;2023-04-08T11:13:44;8.17;;;7.23;;
13568;SDS011;6856;51.460;7.158;2023-04-08T11:16:24;7.27;;;6.43;;
13568;SDS011;6856;51.460;7.158;2023-04-08T11:19:03;6.73;;;6.00;;
13568;SDS011;6856;51.460;7.158;2023-04-08T11:21:38;8.33;;;7.20;;
13568;SDS011;6856;51.460;7.158;2023-04-08T11:24:11;6.97;;;6.27;;
13568;SDS011;6856;51.460;7.158;2023-04-08T11:26:47;7.63;;;6.50;;
13568;SDS011;6856;51.460;7.158;2023-04-08T11:29:21;7.10;;;6.37;;
13568;SDS011;6856;51.460;7.158;2023-04-08T11:31:55;8.50;;;6.43;;
13568;SDS011;6856;51.460;7.158;2023-04-08T11:34:31;10.90;;;7.37;;
13568;SDS011;6856;51.460;7.158;2023-04-08T11:37:06;7.93;;;6.70;;
13568;SDS011;6856;51.460;7.158;2023-04-08T11:39:41;7.60;;;6.77;;
13568;SDS011;6856;51.460;7.158;2023-04-08T11:42:28;8.80;;;6.17;;
13568;SDS011;6856;51.460;7.158;2023-04-08T11:45:19;8.63;;;6.53;;
13568;SDS011;6856;51.460;7.158;2023-04-08T11:48:18;6.03;;;5.30;;
13568;SDS011;6856;51.460;7.158;2023-04-08T11:51:02;7.93;;;5.60;;
13568;SDS011;6856;51.460;7.158;2023-04-08T11:53:39;5.90;;;5.33;;
13568;SDS011;6856;51.460;7.158;2023-04-08T11:56:19;5.80;;;5.20;;
13568;SDS011;6856;51.460;7.158;2023-04-08T11:58:58;6.20;;;5.20;;
13568;SDS011;6856;51.460;7.158;2023-04-08T12:01:32;5.23;;;4.60;;
13568;SDS011;6856;51.460;7.158;2023-04-08T12:04:09;5.77;;;5.10;;
13568;SDS011;6856;51.460;7.158;2023-04-08T12:06:44;6.67;;;5.00;;
13568;SDS011;6856;51.460;7.158;2023-04-08T12:09:18;6.33;;;4.93;;
13568;SDS011;6856;51.460;7.158;2023-04-08T12:11:52;5.70;;;4.83;;
13568;SDS011;6856;51.460;7.158;2023-04-08T12:14:29;6.70;;;4.73;;
13568;SDS011;6856;51.460;7.158;2023-04-08T12:17:04;5.60;;;5.00;;
13568;SDS011;6856;51.460;7.158;2023-04-08T12:19:37;5.43;;;4.93;;
13568;SDS011;6856;51.460;7.158;2023-04-08T12:22:12;5.33;;;4.73;;
13568;SDS011;6856;51.460;7.158;2023-04-08T12:24:46;8.17;;;5.37;;
13568;SDS011;6856;51.460;7.158;2023-04-08T12:27:20;5.20;;;4.70;;
13568;SDS011;6856;51.460;7.158;2023-04-08T12:29:53;6.13;;;5.23;;
13568;SDS011;6856;51.460;7.158;2023-04-08T12:32:28;5.77;;;4.23;;
13568;SDS011;6856;51.460;7.158;2023-04-08T12:35:02;6.13;;;4.63;;
13568;SDS011;6856;51.460;7.158;2023-04-08T12:37:38;5.33;;;4.30;;
13568;SDS011;6856;51.460;7.158;2023-04-08T12:40:12;4.90;;;4.10;;
13568;SDS011;6856;51.460;7.158;2023-04-08T12:42:46;5.60;;;4.53;;
13568;SDS011;6856;51.460;7.158;2023-04-08T12:45:20;5.10;;;4.27;;
13568;SDS011;6856;51.460;7.158;2023-04-08T12:47:54;6.03;;;4.63;;
13568;SDS011;6856;51.460;7.158;2023-04-08T12:50:28;4.87;;;4.13;;
13568;SDS011;6856;51.460;7.158;2023-04-08T12:53:03;5.57;;;4.57;;
13568;SDS011;6856;51.460;7.158;2023-04-08T12:55:38;5.70;;;4.57;;
13568;SDS011;6856;51.460;7.158;2023-04-08T12:58:15;5.33;;;4.53;;
13568;SDS011;6856;51.460;7.158;2023-04-08T13:00:51;5.53;;;4.33;;
13568;SDS011;6856;51.460;7.158;2023-04-08T13:03:25;5.93;;;4.43;;
13568;SDS011;6856;51.460;7.158;2023-04-08T13:06:02;6.43;;;4.67;;
13568;SDS011;6856;51.460;7.158;2023-04-08T13:08:37;5.93;;;5.07;;
13568;SDS011;6856;51.460;7.158;2023-04-08T13:11:11;5.73;;;4.40;;
13568;SDS011;6856;51.460;7.158;2023-04-08T13:13:46;5.60;;;4.83;;
13568;SDS011;6856;51.460;7.158;2023-04-08T13:16:22;5.67;;;4.80;;
13568;SDS011;6856;51.460;7.158;2023-04-08T13:18:56;5.83;;;4.53;;
13568;SDS011;6856;51.460;7.158;2023-04-08T13:21:29;6.30;;;4.77;;
13568;SDS011;6856;51.460;7.158;2023-04-08T13:24:05;5.30;;;4.80;;
13568;SDS011;6856;51.460;7.158;2023-04-08T13:26:41;5.63;;;4.80;;
13568;SDS011;6856;51.460;7.158;2023-04-08T13:29:15;5.27;;;4.57;;
13568;SDS011;6856;51.460;7.158;2023-04-08T13:31:49;6.63;;;5.03;;
13568;SDS011;6856;51.460;7.158;2023-04-08T13:34:23;5.47;;;4.80;;
13568;SDS011;6856;51.460;7.158;2023-04-08T13:36:57;5.63;;;4.30;;
13568;SDS011;6856;51.460;7.158;2023-04-08T13:39:33;5.00;;;4.30;;
13568;SDS011;6856;51.460;7.158;2023-04-08T13:42:06;5.33;;;4.33;;
13568;SDS011;6856;51.460;7.158;2023-04-08T13:44:40;6.17;;;4.83;;
13568;SDS011;6856;51.460;7.158;2023-04-08T13:47:14;4.83;;;4.33;;
13568;SDS011;6856;51.460;7.158;2023-04-08T13:49:47;6.00;;;5.00;;
13568;SDS011;6856;51.460;7.158;2023-04-08T13:52:24;5.07;;;4.43;;
13568;SDS011;6856;51.460;7.158;2023-04-08T13:55:01;5.43;;;4.37;;
13568;SDS011;6856;51.460;7.158;2023-04-08T13:57:35;5.37;;;4.60;;
13568;SDS011;6856;51.460;7.158;2023-04-08T14:00:09;5.33;;;4.53;;
13568;SDS011;6856;51.460;7.158;2023-04-08T14:02:44;7.13;;;5.27;;
13568;SDS011;6856;51.460;7.158;2023-04-08T14:05:18;5.70;;;5.07;;
13568;SDS011;6856;51.460;7.158;2023-04-08T14:07:54;6.27;;;5.17;;
13568;SDS011;6856;51.460;7.158;2023-04-08T14:10:29;6.00;;;4.97;;
13568;SDS011;6856;51.460;7.158;2023-04-08T14:13:02;5.17;;;4.40;;
13568;SDS011;6856;51.460;7.158;2023-04-08T14:15:36;5.83;;;5.23;;
13568;SDS011;6856;51.460;7.158;2023-04-08T14:18:10;5.53;;;4.90;;
13568;SDS011;6856;51.460;7.158;2023-04-08T14:20:44;6.27;;;5.00;;
13568;SDS011;6856;51.460;7.158;2023-04-08T14:23:18;5.97;;;4.83;;
13568;SDS011;6856;51.460;7.158;2023-04-08T14:25:54;5.40;;;4.73;;
13568;SDS011;6856;51.460;7.158;2023-04-08T14:28:27;7.90;;;5.00;;
13568;SDS011;6856;51.460;7.158;2023-04-08T14:31:01;5.83;;;5.13;;
13568;SDS011;6856;51.460;7.158;2023-04-08T14:33:36;6.77;;;5.57;;
13568;SDS011;6856;51.460;7.158;2023-04-08T14:36:11;5.90;;;5.30;;
13568;SDS011;6856;51.460;7.158;2023-04-08T14:38:45;6.07;;;5.40;;
13568;SDS011;6856;51.460;7.158;2023-04-08T14:41:20;7.43;;;6.43;;
13568;SDS011;6856;51.460;7.158;2023-04-08T14:43:56;7.40;;;6.30;;
13568;SDS011;6856;51.460;7.158;2023-04-08T14:46:30;7.13;;;6.43;;
13568;SDS011;6856;51.460;7.158;2023-04-08T14:49:04;9.13;;;8.23;;
13568;SDS011;6856;51.460;7.158;2023-04-08T14:51:38;10.30;;;9.20;;
13568;SDS011;6856;51.460;7.158;2023-04-08T14:54:12;10.73;;;9.63;;
13568;SDS011;6856;51.460;7.158;2023-04-08T14:56:48;12.10;;;10.27;;
13568;SDS011;6856;51.460;7.158;2023-04-08T14:59:23;12.20;;;11.00;;
13568;SDS011;6856;51.460;7.158;2023-04-08T15:01:58;12.47;;;11.27;;
13568;SDS011;6856;51.460;7.158;2023-04-08T15:04:32;14.00;;;12.60;;
13568;SDS011;6856;51.460;7.158;2023-04-08T15:07:06;14.57;;;13.13;;
13568;SDS011;6856;51.460;7.158;2023-04-08T15:09:42;14.40;;;12.90;;
13568;SDS011;6856;51.460;7.158;2023-04-08T15:12:17;12.97;;;11.67;;
13568;SDS011;6856;51.460;7.158;2023-04-08T15:14:51;12.97;;;11.70;;
13568;SDS011;6856;51.460;7.158;2023-04-08T15:17:25;11.97;;;10.83;;
13568;SDS011;6856;51.460;7.158;2023-04-08T15:19:59;12.53;;;11.33;;
13568;SDS011;6856;51.460;7.158;2023-04-08T15:22:33;12.17;;;11.03;;
13568;SDS011;6856;51.460;7.158;2023-04-08T15:25:07;11.73;;;10.63;;
13568;SDS011;6856;51.460;7.158;2023-04-08T15:27:44;10.90;;;9.80;;
13568;SDS011;6856;51.460;7.158;2023-04-08T15:30:17;12.07;;;10.77;;
13568;SDS011;6856;51.460;7.158;2023-04-08T15:32:54;13.93;;;12.53;;
13568;SDS011;6856;51.460;7.158;2023-04-08T15:35:29;11.70;;;10.60;;
13568;SDS011;6856;51.460;7.158;2023-04-08T15:38:03;12.27;;;11.07;;
13568;SDS011;6856;51.460;7.158;2023-04-08T15:40:38;10.43;;;9.37;;
13568;SDS011;6856;51.460;7.158;2023-04-08T15:43:13;9.77;;;8.77;;